Ornslund, Denmark
Current Conditions -  °F | °C
As of 6:50 AM on Sunday 21 Dec 2014 (Local Time) from EKAH Reporting Station
Clear Clear  
Wind Chill:   Ceiling: Unl
Heat Index:   Visibility: 6mi
Dew Point:   Wind: 12mph
Humidity: 76%   Direction: 270°W
Pressure: 29.97"   Gusts: NA
Location:  55.7°N, 10.6°E
Report Text: EKAH 210550Z AUTO 27010KT 9999NDV NCD 05/01 Q1015
Loading
Personal Weather Stations






























Interactive Weather Map New forecast layout! Learn more

10-Day Weather Forecast

Advertisements
Track Severe Weather on mobile